sensor_id;sensor_type;location;lat;lon;timestamp;pressure;altitude;pressure_sealevel;temperature;humidity
47556;BME280;33291;46.222;26.460;2023-05-20T00:00:07;97024.72;;;14.01;89.64
47556;BME280;33291;46.222;26.460;2023-05-20T00:02:32;97022.84;;;13.93;90.01
47556;BME280;33291;46.222;26.460;2023-05-20T00:04:58;97033.09;;;13.86;90.46
47556;BME280;33291;46.222;26.460;2023-05-20T00:07:23;97021.97;;;13.75;91.36
47556;BME280;33291;46.222;26.460;2023-05-20T00:09:49;97035.06;;;13.75;91.36
47556;BME280;33291;46.222;26.460;2023-05-20T00:12:14;97030.41;;;13.68;91.46
47556;BME280;33291;46.222;26.460;2023-05-20T00:14:40;97031.22;;;13.69;91.35
47556;BME280;33291;46.222;26.460;2023-05-20T00:17:05;97025.75;;;13.62;91.34
47556;BME280;33291;46.222;26.460;2023-05-20T00:19:31;97035.25;;;13.63;91.04
47556;BME280;33291;46.222;26.460;2023-05-20T00:21:56;97022.72;;;13.57;90.94
47556;BME280;33291;46.222;26.460;2023-05-20T00:24:23;97035.25;;;13.63;90.74
47556;BME280;33291;46.222;26.460;2023-05-20T00:26:48;97036.22;;;13.62;90.72
47556;BME280;33291;46.222;26.460;2023-05-20T00:29:14;97036.25;;;13.53;91.11
47556;BME280;33291;46.222;26.460;2023-05-20T00:31:39;97032.16;;;13.50;91.17
47556;BME280;33291;46.222;26.460;2023-05-20T00:34:06;97038.63;;;13.46;91.33
47556;BME280;33291;46.222;26.460;2023-05-20T00:36:34;97033.69;;;13.43;91.27
47556;BME280;33291;46.222;26.460;2023-05-20T00:38:59;97040.16;;;13.39;91.49
47556;BME280;33291;46.222;26.460;2023-05-20T00:41:25;97018.69;;;13.25;92.12
47556;BME280;33291;46.222;26.460;2023-05-20T00:43:54;97021.88;;;13.29;91.71
47556;BME280;33291;46.222;26.460;2023-05-20T00:46:20;97031.09;;;13.33;91.58
47556;BME280;33291;46.222;26.460;2023-05-20T00:48:46;97028.88;;;13.28;91.75
47556;BME280;33291;46.222;26.460;2023-05-20T00:51:12;97036.56;;;13.30;91.54
47556;BME280;33291;46.222;26.460;2023-05-20T00:53:38;97018.75;;;13.15;91.67
47556;BME280;33291;46.222;26.460;2023-05-20T00:56:05;97033.63;;;13.15;92.09
47556;BME280;33291;46.222;26.460;2023-05-20T00:58:31;97037.47;;;13.11;92.03
47556;BME280;33291;46.222;26.460;2023-05-20T01:00:57;97045.03;;;13.14;91.88
47556;BME280;33291;46.222;26.460;2023-05-20T01:03:22;97040.50;;;13.06;91.93
47556;BME280;33291;46.222;26.460;2023-05-20T01:05:48;97043.00;;;13.08;91.89
47556;BME280;33291;46.222;26.460;2023-05-20T01:08:13;97034.19;;;12.99;92.10
47556;BME280;33291;46.222;26.460;2023-05-20T01:10:41;97035.72;;;13.02;92.17
47556;BME280;33291;46.222;26.460;2023-05-20T01:13:10;97035.28;;;12.96;92.63
47556;BME280;33291;46.222;26.460;2023-05-20T01:15:39;97035.28;;;12.96;92.35
47556;BME280;33291;46.222;26.460;2023-05-20T01:18:07;97025.97;;;12.94;92.83
47556;BME280;33291;46.222;26.460;2023-05-20T01:20:34;96998.75;;;12.77;92.65
47556;BME280;33291;46.222;26.460;2023-05-20T01:23:01;97024.81;;;12.96;92.43
47556;BME280;33291;46.222;26.460;2023-05-20T01:25:27;97025.69;;;12.97;92.28
47556;BME280;33291;46.222;26.460;2023-05-20T01:27:54;97030.47;;;12.92;93.20
47556;BME280;33291;46.222;26.460;2023-05-20T01:30:23;97029.66;;;12.91;92.67
47556;BME280;33291;46.222;26.460;2023-05-20T01:33:00;97028.16;;;12.89;93.17
47556;BME280;33291;46.222;26.460;2023-05-20T01:35:27;97027.22;;;12.80;93.25
47556;BME280;33291;46.222;26.460;2023-05-20T01:37:54;97026.50;;;12.78;93.08
47556;BME280;33291;46.222;26.460;2023-05-20T01:40:21;97031.75;;;12.78;92.78
47556;BME280;33291;46.222;26.460;2023-05-20T01:42:48;97028.16;;;12.79;92.80
47556;BME280;33291;46.222;26.460;2023-05-20T01:45:17;97020.88;;;12.83;93.06
47556;BME280;33291;46.222;26.460;2023-05-20T01:47:44;97020.19;;;12.80;93.08
47556;BME280;33291;46.222;26.460;2023-05-20T01:50:10;97019.38;;;12.80;93.60
47556;BME280;33291;46.222;26.460;2023-05-20T01:52:36;97036.28;;;12.76;93.91
47556;BME280;33291;46.222;26.460;2023-05-20T01:55:01;97014.16;;;12.70;93.76
47556;BME280;33291;46.222;26.460;2023-05-20T01:57:27;97029.53;;;12.73;94.32
47556;BME280;33291;46.222;26.460;2023-05-20T01:59:52;97021.72;;;12.73;94.21
47556;BME280;33291;46.222;26.460;2023-05-20T02:02:17;97033.69;;;12.76;93.70
47556;BME280;33291;46.222;26.460;2023-05-20T02:04:50;97023.22;;;12.76;93.62
47556;BME280;33291;46.222;26.460;2023-05-20T02:07:16;97014.44;;;12.77;93.37
47556;BME280;33291;46.222;26.460;2023-05-20T02:09:46;97011.97;;;12.75;93.43
47556;BME280;33291;46.222;26.460;2023-05-20T02:12:12;97031.31;;;12.83;93.51
47556;BME280;33291;46.222;26.460;2023-05-20T02:14:45;97037.41;;;12.83;92.96
47556;BME280;33291;46.222;26.460;2023-05-20T02:17:12;97027.63;;;12.75;92.93
47556;BME280;33291;46.222;26.460;2023-05-20T02:19:40;97024.03;;;12.76;92.68
47556;BME280;33291;46.222;26.460;2023-05-20T02:22:06;97033.16;;;12.72;93.01
47556;BME280;33291;46.222;26.460;2023-05-20T02:24:31;97024.59;;;12.70;93.09
47556;BME280;33291;46.222;26.460;2023-05-20T02:26:57;97024.19;;;12.75;93.20
47556;BME280;33291;46.222;26.460;2023-05-20T02:29:24;97029.28;;;12.76;92.93
47556;BME280;33291;46.222;26.460;2023-05-20T02:31:49;97022.69;;;12.72;92.72
47556;BME280;33291;46.222;26.460;2023-05-20T02:34:16;97020.47;;;12.77;92.63
47556;BME280;33291;46.222;26.460;2023-05-20T02:36:42;97024.59;;;12.80;92.55
47556;BME280;33291;46.222;26.460;2023-05-20T02:39:07;97019.38;;;12.70;93.02
47556;BME280;33291;46.222;26.460;2023-05-20T02:41:33;97028.59;;;12.74;92.85
47556;BME280;33291;46.222;26.460;2023-05-20T02:43:58;97046.63;;;12.77;93.01
47556;BME280;33291;46.222;26.460;2023-05-20T02:46:24;97048.28;;;12.78;92.69
47556;BME280;33291;46.222;26.460;2023-05-20T02:48:50;97036.97;;;12.78;92.74
47556;BME280;33291;46.222;26.460;2023-05-20T02:51:15;97051.56;;;12.80;93.79
47556;BME280;33291;46.222;26.460;2023-05-20T02:53:40;97050.03;;;12.78;93.84
47556;BME280;33291;46.222;26.460;2023-05-20T02:56:06;97065.03;;;12.86;93.41
47556;BME280;33291;46.222;26.460;2023-05-20T02:58:33;97058.72;;;12.88;93.65
47556;BME280;33291;46.222;26.460;2023-05-20T03:01:00;97055.41;;;12.86;93.47
47556;BME280;33291;46.222;26.460;2023-05-20T03:03:25;97041.34;;;12.87;93.70
47556;BME280;33291;46.222;26.460;2023-05-20T03:05:51;97036.84;;;12.89;93.74
47556;BME280;33291;46.222;26.460;2023-05-20T03:08:18;97037.78;;;12.88;93.58
47556;BME280;33291;46.222;26.460;2023-05-20T03:10:44;97031.31;;;12.92;93.44
47556;BME280;33291;46.222;26.460;2023-05-20T03:13:09;97033.94;;;12.92;93.70
47556;BME280;33291;46.222;26.460;2023-05-20T03:15:38;97025.69;;;12.87;93.67
47556;BME280;33291;46.222;26.460;2023-05-20T03:18:04;97035.44;;;12.95;93.80
47556;BME280;33291;46.222;26.460;2023-05-20T03:20:30;97040.50;;;12.96;93.79
47556;BME280;33291;46.222;26.460;2023-05-20T03:23:03;97041.50;;;12.95;93.71
47556;BME280;33291;46.222;26.460;2023-05-20T03:25:28;97043.84;;;12.98;93.77
47556;BME280;33291;46.222;26.460;2023-05-20T03:27:54;97038.88;;;12.95;93.89
47556;BME280;33291;46.222;26.460;2023-05-20T03:30:20;97039.97;;;13.03;93.82
47556;BME280;33291;46.222;26.460;2023-05-20T03:32:45;97048.63;;;13.03;94.25
47556;BME280;33291;46.222;26.460;2023-05-20T03:35:11;97048.78;;;13.02;94.78
47556;BME280;33291;46.222;26.460;2023-05-20T03:37:37;97051.97;;;12.95;94.01
47556;BME280;33291;46.222;26.460;2023-05-20T03:40:02;97057.06;;;12.97;93.97
47556;BME280;33291;46.222;26.460;2023-05-20T03:42:32;97057.88;;;12.97;93.88
47556;BME280;33291;46.222;26.460;2023-05-20T03:44:58;97048.78;;;13.02;94.05
47556;BME280;33291;46.222;26.460;2023-05-20T03:47:25;97039.41;;;12.99;94.70
47556;BME280;33291;46.222;26.460;2023-05-20T03:49:50;97051.53;;;13.00;94.54
47556;BME280;33291;46.222;26.460;2023-05-20T03:52:16;97054.00;;;13.02;94.15
47556;BME280;33291;46.222;26.460;2023-05-20T03:54:41;97059.25;;;13.02;94.65
47556;BME280;33291;46.222;26.460;2023-05-20T03:57:07;97058.16;;;13.04;94.65
47556;BME280;33291;46.222;26.460;2023-05-20T03:59:34;97043.41;;;12.93;94.97
47556;BME280;33291;46.222;26.460;2023-05-20T04:02:01;97047.00;;;12.92;96.21
47556;BME280;33291;46.222;26.460;2023-05-20T04:04:26;97056.50;;;13.03;95.55
47556;BME280;33291;46.222;26.460;2023-05-20T04:06:51;97052.91;;;13.04;95.68
47556;BME280;33291;46.222;26.460;2023-05-20T04:09:18;97041.75;;;13.02;95.31
47556;BME280;33291;46.222;26.460;2023-05-20T04:11:44;97052.63;;;13.07;94.83
47556;BME280;33291;46.222;26.460;2023-05-20T04:14:10;97051.66;;;13.08;94.82
47556;BME280;33291;46.222;26.460;2023-05-20T04:16:36;97051.38;;;13.11;95.09
47556;BME280;33291;46.222;26.460;2023-05-20T04:19:02;97049.44;;;13.13;95.44
47556;BME280;33291;46.222;26.460;2023-05-20T04:21:28;97054.81;;;13.12;95.90
47556;BME280;33291;46.222;26.460;2023-05-20T04:23:53;97047.94;;;13.11;95.48
47556;BME280;33291;46.222;26.460;2023-05-20T04:26:19;97052.22;;;13.12;95.35
47556;BME280;33291;46.222;26.460;2023-05-20T04:28:45;97060.06;;;13.12;95.27
47556;BME280;33291;46.222;26.460;2023-05-20T04:31:13;97060.44;;;13.17;96.28
47556;BME280;33291;46.222;26.460;2023-05-20T04:33:38;97059.78;;;13.15;96.94
47556;BME280;33291;46.222;26.460;2023-05-20T04:36:05;97056.88;;;13.18;96.30
47556;BME280;33291;46.222;26.460;2023-05-20T04:38:31;97063.75;;;13.19;96.81
47556;BME280;33291;46.222;26.460;2023-05-20T04:40:59;97040.47;;;13.16;96.01
47556;BME280;33291;46.222;26.460;2023-05-20T04:43:26;97068.25;;;13.27;95.56
47556;BME280;33291;46.222;26.460;2023-05-20T04:45:57;97064.53;;;13.29;95.96
47556;BME280;33291;46.222;26.460;2023-05-20T04:48:24;97052.03;;;13.23;95.45
47556;BME280;33291;46.222;26.460;2023-05-20T04:50:49;97072.56;;;13.38;95.54
47556;BME280;33291;46.222;26.460;2023-05-20T04:53:16;97070.47;;;13.41;95.48
47556;BME280;33291;46.222;26.460;2023-05-20T04:55:42;97079.00;;;13.43;95.55
47556;BME280;33291;46.222;26.460;2023-05-20T04:58:08;97093.31;;;13.49;95.50
47556;BME280;33291;46.222;26.460;2023-05-20T05:00:40;97096.59;;;13.51;95.05
47556;BME280;33291;46.222;26.460;2023-05-20T05:03:06;97104.59;;;13.49;95.17
47556;BME280;33291;46.222;26.460;2023-05-20T05:05:36;97112.00;;;13.54;95.08
47556;BME280;33291;46.222;26.460;2023-05-20T05:08:03;97120.44;;;13.58;95.24
47556;BME280;33291;46.222;26.460;2023-05-20T05:10:29;97115.88;;;13.60;95.41
47556;BME280;33291;46.222;26.460;2023-05-20T05:12:54;97093.25;;;13.59;95.86
47556;BME280;33291;46.222;26.460;2023-05-20T05:15:20;97085.25;;;13.60;95.92
47556;BME280;33291;46.222;26.460;2023-05-20T05:17:45;97080.03;;;13.60;96.69
47556;BME280;33291;46.222;26.460;2023-05-20T05:20:11;97078.84;;;13.55;97.58
47556;BME280;33291;46.222;26.460;2023-05-20T05:22:36;97067.00;;;13.50;100.00
47556;BME280;33291;46.222;26.460;2023-05-20T05:25:04;97080.88;;;13.51;99.54
47556;BME280;33291;46.222;26.460;2023-05-20T05:27:30;97077.47;;;13.50;100.00
47556;BME280;33291;46.222;26.460;2023-05-20T05:29:56;97078.97;;;13.53;100.00
47556;BME280;33291;46.222;26.460;2023-05-20T05:32:21;97080.47;;;13.56;100.00
47556;BME280;33291;46.222;26.460;2023-05-20T05:34:47;97079.94;;;13.52;100.00
47556;BME280;33291;46.222;26.460;2023-05-20T05:37:12;97081.75;;;13.52;100.00
47556;BME280;33291;46.222;26.460;2023-05-20T05:39:38;97084.88;;;13.55;100.00
47556;BME280;33291;46.222;26.460;2023-05-20T05:42:03;97090.50;;;13.60;100.00
47556;BME280;33291;46.222;26.460;2023-05-20T05:44:29;97089.97;;;13.66;100.00
47556;BME280;33291;46.222;26.460;2023-05-20T05:46:55;97093.47;;;13.75;100.00
47556;BME280;33291;46.222;26.460;2023-05-20T05:49:20;97083.72;;;13.77;100.00
47556;BME280;33291;46.222;26.460;2023-05-20T05:51:46;97093.97;;;13.89;100.00
47556;BME280;33291;46.222;26.460;2023-05-20T05:54:12;97087.34;;;13.94;100.00
47556;BME280;33291;46.222;26.460;2023-05-20T05:56:37;97057.66;;;13.76;100.00
47556;BME280;33291;46.222;26.460;2023-05-20T05:59:03;97090.63;;;13.96;100.00
47556;BME280;33291;46.222;26.460;2023-05-20T06:01:29;97090.50;;;13.98;100.00
47556;BME280;33291;46.222;26.460;2023-05-20T06:03:54;97092.53;;;14.04;100.00
47556;BME280;33291;46.222;26.460;2023-05-20T06:06:20;97096.66;;;14.07;100.00
47556;BME280;33291;46.222;26.460;2023-05-20T06:08:45;97101.59;;;14.10;100.00
47556;BME280;33291;46.222;26.460;2023-05-20T06:11:11;97118.53;;;14.15;100.00
47556;BME280;33291;46.222;26.460;2023-05-20T06:13:36;97117.25;;;14.19;100.00
47556;BME280;33291;46.222;26.460;2023-05-20T06:16:02;97089.66;;;14.25;100.00
47556;BME280;33291;46.222;26.460;2023-05-20T06:18:28;97080.38;;;14.31;100.00
47556;BME280;33291;46.222;26.460;2023-05-20T06:20:55;97083.78;;;14.41;100.00
47556;BME280;33291;46.222;26.460;2023-05-20T06:23:21;97086.16;;;14.52;100.00
47556;BME280;33291;46.222;26.460;2023-05-20T06:25:46;97083.22;;;14.65;99.93
47556;BME280;33291;46.222;26.460;2023-05-20T06:28:13;97086.25;;;14.79;96.08
47556;BME280;33291;46.222;26.460;2023-05-20T06:30:39;97086.69;;;14.92;95.70
47556;BME280;33291;46.222;26.460;2023-05-20T06:33:05;97085.34;;;15.06;94.90
47556;BME280;33291;46.222;26.460;2023-05-20T06:35:30;97090.66;;;15.14;93.92
47556;BME280;33291;46.222;26.460;2023-05-20T06:37:59;97077.53;;;15.14;94.66
47556;BME280;33291;46.222;26.460;2023-05-20T06:40:26;97074.81;;;15.24;95.37
47556;BME280;33291;46.222;26.460;2023-05-20T06:42:51;97079.44;;;15.30;96.44
47556;BME280;33291;46.222;26.460;2023-05-20T06:45:17;97084.69;;;15.30;96.73
47556;BME280;33291;46.222;26.460;2023-05-20T06:47:43;97086.69;;;15.36;97.58
47556;BME280;33291;46.222;26.460;2023-05-20T06:50:09;97082.78;;;15.40;98.21
47556;BME280;33291;46.222;26.460;2023-05-20T06:52:35;97085.91;;;15.44;99.11
47556;BME280;33291;46.222;26.460;2023-05-20T06:55:00;97058.28;;;15.32;99.50
47556;BME280;33291;46.222;26.460;2023-05-20T06:57:26;97088.28;;;15.55;99.49
47556;BME280;33291;46.222;26.460;2023-05-20T06:59:51;97074.06;;;15.66;99.31
47556;BME280;33291;46.222;26.460;2023-05-20T07:02:17;97066.13;;;15.84;97.63
47556;BME280;33291;46.222;26.460;2023-05-20T07:04:42;97070.63;;;16.00;95.11
47556;BME280;33291;46.222;26.460;2023-05-20T07:07:08;97069.97;;;16.06;91.44
47556;BME280;33291;46.222;26.460;2023-05-20T07:09:33;97065.94;;;16.20;88.11
47556;BME280;33291;46.222;26.460;2023-05-20T07:12:00;97068.09;;;16.25;84.42
47556;BME280;33291;46.222;26.460;2023-05-20T07:14:26;97063.31;;;16.28;85.53
47556;BME280;33291;46.222;26.460;2023-05-20T07:16:51;97071.03;;;16.30;85.26
47556;BME280;33291;46.222;26.460;2023-05-20T07:19:17;97065.78;;;16.38;85.16
47556;BME280;33291;46.222;26.460;2023-05-20T07:21:42;97063.84;;;16.48;85.95
47556;BME280;33291;46.222;26.460;2023-05-20T07:24:08;97062.53;;;16.61;87.29
47556;BME280;33291;46.222;26.460;2023-05-20T07:26:33;97045.94;;;16.68;87.29
47556;BME280;33291;46.222;26.460;2023-05-20T07:29:01;97055.34;;;16.87;84.62
47556;BME280;33291;46.222;26.460;2023-05-20T07:31:27;97055.34;;;16.96;84.08
47556;BME280;33291;46.222;26.460;2023-05-20T07:33:53;97044.66;;;17.05;82.86
47556;BME280;33291;46.222;26.460;2023-05-20T07:36:18;97043.19;;;17.11;81.55
47556;BME280;33291;46.222;26.460;2023-05-20T07:38:43;97052.88;;;17.11;80.84
47556;BME280;33291;46.222;26.460;2023-05-20T07:41:10;97035.94;;;17.05;80.31
47556;BME280;33291;46.222;26.460;2023-05-20T07:43:35;97044.81;;;17.12;79.92
47556;BME280;33291;46.222;26.460;2023-05-20T07:46:01;97047.78;;;17.17;79.73
47556;BME280;33291;46.222;26.460;2023-05-20T07:48:26;97048.72;;;17.25;80.51
47556;BME280;33291;46.222;26.460;2023-05-20T07:50:52;97025.72;;;17.18;82.33
47556;BME280;33291;46.222;26.460;2023-05-20T07:53:17;97043.09;;;17.44;80.22
47556;BME280;33291;46.222;26.460;2023-05-20T07:55:43;97052.09;;;17.58;78.88
47556;BME280;33291;46.222;26.460;2023-05-20T07:58:08;97039.44;;;17.62;77.57
47556;BME280;33291;46.222;26.460;2023-05-20T08:00:34;97033.50;;;17.68;76.06
47556;BME280;33291;46.222;26.460;2023-05-20T08:03:00;97053.19;;;17.80;76.23
47556;BME280;33291;46.222;26.460;2023-05-20T08:05:25;97041.66;;;17.89;75.55
47556;BME280;33291;46.222;26.460;2023-05-20T08:07:51;97046.25;;;17.96;74.89
47556;BME280;33291;46.222;26.460;2023-05-20T08:10:16;97035.00;;;18.02;73.74
47556;BME280;33291;46.222;26.460;2023-05-20T08:12:42;97041.34;;;18.16;72.97
47556;BME280;33291;46.222;26.460;2023-05-20T08:15:07;97040.31;;;18.25;72.74
47556;BME280;33291;46.222;26.460;2023-05-20T08:17:33;97028.06;;;18.32;70.34
47556;BME280;33291;46.222;26.460;2023-05-20T08:19:59;97019.78;;;18.43;67.61
47556;BME280;33291;46.222;26.460;2023-05-20T08:22:26;97023.28;;;18.59;66.99
47556;BME280;33291;46.222;26.460;2023-05-20T08:24:51;97032.53;;;18.78;68.20
47556;BME280;33291;46.222;26.460;2023-05-20T08:27:17;97031.78;;;18.92;66.70
47556;BME280;33291;46.222;26.460;2023-05-20T08:29:43;97035.19;;;19.01;64.38
47556;BME280;33291;46.222;26.460;2023-05-20T08:32:09;97033.09;;;19.11;65.50
47556;BME280;33291;46.222;26.460;2023-05-20T08:34:35;97027.25;;;19.16;65.21
47556;BME280;33291;46.222;26.460;2023-05-20T08:37:01;97022.91;;;19.23;64.30
47556;BME280;33291;46.222;26.460;2023-05-20T08:39:27;97029.47;;;19.27;65.47
47556;BME280;33291;46.222;26.460;2023-05-20T08:41:52;97024.47;;;19.32;65.26
47556;BME280;33291;46.222;26.460;2023-05-20T08:44:18;97032.38;;;19.32;65.11
47556;BME280;33291;46.222;26.460;2023-05-20T08:46:46;97033.31;;;19.40;63.63
47556;BME280;33291;46.222;26.460;2023-05-20T08:49:13;97038.31;;;19.49;62.24
47556;BME280;33291;46.222;26.460;2023-05-20T08:51:38;97034.41;;;19.60;62.71
47556;BME280;33291;46.222;26.460;2023-05-20T08:54:05;97037.03;;;19.75;62.15
47556;BME280;33291;46.222;26.460;2023-05-20T08:56:32;97025.22;;;19.86;61.25
47556;BME280;33291;46.222;26.460;2023-05-20T08:58:58;97031.28;;;20.01;59.13
47556;BME280;33291;46.222;26.460;2023-05-20T09:01:23;97024.00;;;20.03;57.06
47556;BME280;33291;46.222;26.460;2023-05-20T09:03:51;97028.47;;;20.03;57.39
47556;BME280;33291;46.222;26.460;2023-05-20T09:06:17;97033.19;;;20.08;57.51
47556;BME280;33291;46.222;26.460;2023-05-20T09:08:44;97029.53;;;20.09;56.62
47556;BME280;33291;46.222;26.460;2023-05-20T09:11:11;97033.28;;;19.99;57.66
47556;BME280;33291;46.222;26.460;2023-05-20T09:13:37;97023.09;;;19.96;57.31
47556;BME280;33291;46.222;26.460;2023-05-20T09:16:02;97030.56;;;20.08;58.31
47556;BME280;33291;46.222;26.460;2023-05-20T09:18:28;97025.03;;;20.24;56.52
47556;BME280;33291;46.222;26.460;2023-05-20T09:20:54;97010.50;;;20.35;56.26
47556;BME280;33291;46.222;26.460;2023-05-20T09:23:19;97014.28;;;20.47;56.76
47556;BME280;33291;46.222;26.460;2023-05-20T09:25:50;97029.06;;;20.63;58.12
47556;BME280;33291;46.222;26.460;2023-05-20T09:28:19;97027.59;;;20.75;55.35
47556;BME280;33291;46.222;26.460;2023-05-20T09:30:47;97023.63;;;20.86;54.16
47556;BME280;33291;46.222;26.460;2023-05-20T09:33:13;97018.75;;;20.90;55.06
47556;BME280;33291;46.222;26.460;2023-05-20T09:35:40;97023.66;;;20.93;55.03
47556;BME280;33291;46.222;26.460;2023-05-20T09:38:05;97011.81;;;20.89;55.16
47556;BME280;33291;46.222;26.460;2023-05-20T09:40:34;97012.84;;;20.88;55.57
47556;BME280;33291;46.222;26.460;2023-05-20T09:43:03;97007.53;;;20.88;54.65
47556;BME280;33291;46.222;26.460;2023-05-20T09:45:29;97002.00;;;20.83;55.06
47556;BME280;33291;46.222;26.460;2023-05-20T09:47:55;97001.00;;;20.84;54.84
47556;BME280;33291;46.222;26.460;2023-05-20T09:50:22;96995.72;;;20.90;55.02
47556;BME280;33291;46.222;26.460;2023-05-20T09:52:49;96993.28;;;20.89;55.37
47556;BME280;33291;46.222;26.460;2023-05-20T09:55:16;97000.22;;;20.90;55.70
47556;BME280;33291;46.222;26.460;2023-05-20T09:57:44;96985.72;;;20.86;55.30
47556;BME280;33291;46.222;26.460;2023-05-20T10:00:10;96984.50;;;20.82;56.00
47556;BME280;33291;46.222;26.460;2023-05-20T10:02:43;96982.41;;;20.77;56.05
47556;BME280;33291;46.222;26.460;2023-05-20T10:05:13;96981.72;;;20.97;55.33
47556;BME280;33291;46.222;26.460;2023-05-20T10:13:17;96969.59;;;21.09;54.61
47556;BME280;33291;46.222;26.460;2023-05-20T10:16:04;96983.03;;;21.07;55.75
47556;BME280;33291;46.222;26.460;2023-05-20T10:21:31;96981.53;;;20.98;54.32
47556;BME280;33291;46.222;26.460;2023-05-20T10:24:07;96981.19;;;20.80;55.27
47556;BME280;33291;46.222;26.460;2023-05-20T10:26:40;96973.13;;;20.88;55.21
47556;BME280;33291;46.222;26.460;2023-05-20T10:29:18;96979.47;;;20.93;56.55
47556;BME280;33291;46.222;26.460;2023-05-20T10:31:49;96964.63;;;20.99;56.44
47556;BME280;33291;46.222;26.460;2023-05-20T10:34:16;96967.56;;;21.11;55.53
47556;BME280;33291;46.222;26.460;2023-05-20T10:36:55;96963.94;;;21.19;55.98
47556;BME280;33291;46.222;26.460;2023-05-20T10:39:27;96950.31;;;21.22;55.04
47556;BME280;33291;46.222;26.460;2023-05-20T10:41:53;96955.91;;;21.40;55.17
47556;BME280;33291;46.222;26.460;2023-05-20T10:44:45;96950.59;;;21.40;54.75
47556;BME280;33291;46.222;26.460;2023-05-20T10:47:12;96949.00;;;21.46;51.91
47556;BME280;33291;46.222;26.460;2023-05-20T10:49:44;96949.81;;;21.40;51.72
47556;BME280;33291;46.222;26.460;2023-05-20T10:52:11;96952.59;;;21.32;50.99
47556;BME280;33291;46.222;26.460;2023-05-20T10:54:53;96949.34;;;21.36;51.04
47556;BME280;33291;46.222;26.460;2023-05-20T10:57:20;96961.19;;;21.34;51.97
47556;BME280;33291;46.222;26.460;2023-05-20T10:59:45;96937.16;;;21.35;53.37
47556;BME280;33291;46.222;26.460;2023-05-20T11:02:14;96945.16;;;21.48;51.63
47556;BME280;33291;46.222;26.460;2023-05-20T11:04:42;96937.66;;;21.59;49.87
47556;BME280;33291;46.222;26.460;2023-05-20T11:07:08;96938.31;;;21.61;51.89
47556;BME280;33291;46.222;26.460;2023-05-20T11:09:34;96931.38;;;21.60;53.68
47556;BME280;33291;46.222;26.460;2023-05-20T11:12:00;96933.22;;;21.59;53.31
47556;BME280;33291;46.222;26.460;2023-05-20T11:14:29;96928.50;;;21.55;50.97
47556;BME280;33291;46.222;26.460;2023-05-20T11:16:58;96915.69;;;21.30;51.83
47556;BME280;33291;46.222;26.460;2023-05-20T11:19:25;96919.38;;;21.29;52.83
47556;BME280;33291;46.222;26.460;2023-05-20T11:21:51;96931.00;;;21.28;54.74
47556;BME280;33291;46.222;26.460;2023-05-20T11:24:27;96928.50;;;21.20;55.06
47556;BME280;33291;46.222;26.460;2023-05-20T11:26:54;96917.59;;;21.01;54.58
47556;BME280;33291;46.222;26.460;2023-05-20T11:29:20;96932.28;;;21.04;56.09
47556;BME280;33291;46.222;26.460;2023-05-20T11:31:49;96913.72;;;20.97;54.53
47556;BME280;33291;46.222;26.460;2023-05-20T11:34:21;96928.31;;;20.86;54.42
47556;BME280;33291;46.222;26.460;2023-05-20T11:36:47;96913.13;;;20.73;55.29
47556;BME280;33291;46.222;26.460;2023-05-20T11:39:15;96903.41;;;20.81;55.16
47556;BME280;33291;46.222;26.460;2023-05-20T11:41:41;96907.16;;;20.93;54.80
47556;BME280;33291;46.222;26.460;2023-05-20T11:44:10;96901.78;;;21.15;55.76
47556;BME280;33291;46.222;26.460;2023-05-20T11:46:45;96898.00;;;21.30;54.89
47556;BME280;33291;46.222;26.460;2023-05-20T11:49:14;96907.41;;;21.46;53.39
47556;BME280;33291;46.222;26.460;2023-05-20T11:51:42;96906.84;;;21.51;51.89
47556;BME280;33291;46.222;26.460;2023-05-20T11:54:08;96897.50;;;21.62;52.11
47556;BME280;33291;46.222;26.460;2023-05-20T11:56:38;96902.25;;;21.73;52.34
47556;BME280;33291;46.222;26.460;2023-05-20T11:59:07;96872.88;;;21.81;50.71
47556;BME280;33291;46.222;26.460;2023-05-20T12:01:36;96889.03;;;21.93;52.76
47556;BME280;33291;46.222;26.460;2023-05-20T12:04:05;96880.69;;;21.96;51.87
47556;BME280;33291;46.222;26.460;2023-05-20T12:06:30;96872.94;;;22.08;51.20
47556;BME280;33291;46.222;26.460;2023-05-20T12:08:59;96877.03;;;22.17;52.33
47556;BME280;33291;46.222;26.460;2023-05-20T12:11:28;96867.25;;;22.25;49.27
47556;BME280;33291;46.222;26.460;2023-05-20T12:13:53;96867.91;;;22.33;49.16
47556;BME280;33291;46.222;26.460;2023-05-20T12:16:19;96861.75;;;22.46;50.58
47556;BME280;33291;46.222;26.460;2023-05-20T12:18:44;96835.00;;;22.28;49.60
47556;BME280;33291;46.222;26.460;2023-05-20T12:21:10;96853.19;;;22.31;49.72
47556;BME280;33291;46.222;26.460;2023-05-20T12:23:35;96841.09;;;22.08;50.22
47556;BME280;33291;46.222;26.460;2023-05-20T12:26:01;96854.56;;;22.00;51.88
47556;BME280;33291;46.222;26.460;2023-05-20T12:28:26;96851.31;;;22.05;51.13
47556;BME280;33291;46.222;26.460;2023-05-20T12:30:52;96847.25;;;22.15;50.26
47556;BME280;33291;46.222;26.460;2023-05-20T12:33:17;96839.06;;;22.24;49.71
47556;BME280;33291;46.222;26.460;2023-05-20T12:35:44;96844.78;;;22.41;50.34
47556;BME280;33291;46.222;26.460;2023-05-20T12:38:11;96843.56;;;22.57;48.89
47556;BME280;33291;46.222;26.460;2023-05-20T12:40:36;96848.44;;;22.66;48.43
47556;BME280;33291;46.222;26.460;2023-05-20T12:43:03;96847.81;;;22.71;47.78
47556;BME280;33291;46.222;26.460;2023-05-20T12:45:29;96848.00;;;22.83;48.02
47556;BME280;33291;46.222;26.460;2023-05-20T12:47:55;96831.06;;;22.84;46.84
47556;BME280;33291;46.222;26.460;2023-05-20T12:50:22;96846.81;;;22.72;47.82
47556;BME280;33291;46.222;26.460;2023-05-20T12:52:48;96854.19;;;22.70;48.46
47556;BME280;33291;46.222;26.460;2023-05-20T12:55:14;96856.63;;;22.71;48.06